createdAt,value
2019-03-19T00:00:43.244Z,10.07
2019-03-19T00:04:51.073Z,9.99
2019-03-19T00:08:59.208Z,9.74
2019-03-19T00:13:06.822Z,9.40
2019-03-19T00:17:14.921Z,9.24
2019-03-19T00:21:22.629Z,9.19
2019-03-19T00:25:30.721Z,9.17
2019-03-19T00:29:38.351Z,9.17
2019-03-19T00:33:47.022Z,8.93
2019-03-19T00:37:55.097Z,8.97
2019-03-19T00:42:03.116Z,9.01
2019-03-19T00:46:11.448Z,8.95
2019-03-19T00:50:19.861Z,8.87
2019-03-19T00:54:28.089Z,8.71
2019-03-19T00:58:35.625Z,8.35
2019-03-19T01:02:43.501Z,8.58
2019-03-19T01:06:51.615Z,8.59
2019-03-19T01:10:59.342Z,8.55
2019-03-19T01:15:08.281Z,8.52
2019-03-19T01:19:16.374Z,8.46
2019-03-19T01:23:23.984Z,8.45
2019-03-19T01:27:32.300Z,8.42
2019-03-19T01:31:40.133Z,8.37
2019-03-19T01:35:47.726Z,8.27
2019-03-19T01:39:55.844Z,8.18
2019-03-19T01:44:03.547Z,8.26
2019-03-19T01:48:11.158Z,8.16
2019-03-19T01:52:19.261Z,8.22
2019-03-19T01:56:27.064Z,8.29
2019-03-19T02:00:34.989Z,8.17
2019-03-19T02:04:43.127Z,8.25
2019-03-19T02:08:50.716Z,8.20
2019-03-19T02:12:58.940Z,8.15
2019-03-19T02:17:07.158Z,8.23
2019-03-19T02:21:14.856Z,8.20
2019-03-19T02:25:23.278Z,8.03
2019-03-19T02:29:32.017Z,7.95
2019-03-19T02:33:39.722Z,8.13
2019-03-19T02:37:47.945Z,8.24
2019-03-19T02:41:55.654Z,8.24
2019-03-19T02:46:03.444Z,8.27
2019-03-19T02:50:11.689Z,8.30
2019-03-19T02:54:19.489Z,8.35
2019-03-19T02:58:27.612Z,8.25
2019-03-19T03:02:35.915Z,8.17
2019-03-19T03:06:43.638Z,8.15
2019-03-19T03:10:51.765Z,8.09
2019-03-19T03:14:59.468Z,7.87
2019-03-19T03:19:07.065Z,7.90
2019-03-19T03:23:14.889Z,7.88
2019-03-19T03:27:22.617Z,7.97
2019-03-19T03:31:30.289Z,7.87
2019-03-19T03:35:38.012Z,7.81
2019-03-19T03:39:45.714Z,7.72
2019-03-19T03:43:53.921Z,7.83
2019-03-19T03:48:02.136Z,7.84
2019-03-19T03:52:09.862Z,7.82
2019-03-19T03:56:18.184Z,7.73
2019-03-19T04:00:26.099Z,7.79
2019-03-19T04:04:33.634Z,7.81
2019-03-19T04:08:41.706Z,7.78
2019-03-19T04:12:49.866Z,7.64
2019-03-19T04:16:57.432Z,7.55
2019-03-19T04:21:05.142Z,7.60
2019-03-19T04:25:13.018Z,7.68
2019-03-19T04:29:20.858Z,7.62
2019-03-19T04:33:28.696Z,7.56
2019-03-19T04:37:36.384Z,7.55
2019-03-19T04:41:43.991Z,7.62
2019-03-19T04:45:51.979Z,7.57
2019-03-19T04:49:59.714Z,7.72
2019-03-19T04:54:07.433Z,7.81
2019-03-19T04:58:15.325Z,7.94
2019-03-19T05:02:23.032Z,8.12
2019-03-19T05:06:31.262Z,8.37
2019-03-19T05:10:39.049Z,8.91
2019-03-19T05:18:52.951Z,9.85
2019-03-19T05:23:00.709Z,10.00
2019-03-19T05:27:08.874Z,10.20
2019-03-19T05:31:17.190Z,10.43
2019-03-19T05:35:24.894Z,10.73
2019-03-19T05:39:32.615Z,11.08
2019-03-19T05:43:40.436Z,11.61
2019-03-19T05:47:48.128Z,12.38
2019-03-19T05:51:56.032Z,12.54
2019-03-19T05:56:04.464Z,13.24
2019-03-19T06:00:12.802Z,13.44
2019-03-19T06:04:20.507Z,13.63
2019-03-19T06:08:28.110Z,14.49
2019-03-19T06:12:35.860Z,14.92
2019-03-19T06:16:43.623Z,15.14
2019-03-19T06:20:51.363Z,14.83
2019-03-19T06:24:59.111Z,15.63
2019-03-19T06:29:07.333Z,15.56
2019-03-19T06:33:15.063Z,16.04
2019-03-19T06:37:22.776Z,16.51
2019-03-19T06:41:30.489Z,16.93
2019-03-19T06:45:38.079Z,16.77
2019-03-19T06:49:46.207Z,17.03
2019-03-19T06:53:54.163Z,16.86
2019-03-19T06:58:10.492Z,16.79
2019-03-19T07:02:11.990Z,16.97
2019-03-19T07:06:19.815Z,17.04
2019-03-19T07:10:27.398Z,16.77
2019-03-19T07:14:35.307Z,17.25
2019-03-19T07:18:43.017Z,17.12
2019-03-19T07:22:50.831Z,17.25
2019-03-19T07:26:58.641Z,17.69
2019-03-19T07:31:06.329Z,18.08
2019-03-19T07:35:14.260Z,18.08
2019-03-19T07:39:22.067Z,18.92
2019-03-19T07:43:29.789Z,18.94
2019-03-19T07:47:37.512Z,19.46
2019-03-19T07:51:45.188Z,19.56
2019-03-19T07:55:53.567Z,19.66
2019-03-19T08:00:01.414Z,18.61
2019-03-19T08:04:10.669Z,20.65
2019-03-19T08:08:19.297Z,19.80
2019-03-19T08:12:27.525Z,19.13
2019-03-19T08:16:35.442Z,20.76
2019-03-19T08:20:43.138Z,20.48
2019-03-19T08:24:50.896Z,21.13
2019-03-19T08:28:58.562Z,21.30
2019-03-19T08:33:06.262Z,21.57
2019-03-19T08:37:15.601Z,21.07
2019-03-19T08:41:23.321Z,20.31
2019-03-19T08:45:31.635Z,21.72
2019-03-19T08:49:39.962Z,21.49
2019-03-19T08:53:47.654Z,20.88
2019-03-19T08:57:56.823Z,20.91
2019-03-19T09:02:04.724Z,22.11
2019-03-19T09:06:12.749Z,22.01
2019-03-19T09:10:21.363Z,22.36
2019-03-19T09:14:28.968Z,20.81
2019-03-19T09:18:36.671Z,21.23
2019-03-19T09:22:44.502Z,21.19
2019-03-19T09:26:52.177Z,21.61
2019-03-19T09:31:00.518Z,22.21
2019-03-19T09:35:08.516Z,21.92
2019-03-19T09:39:17.267Z,21.02
2019-03-19T09:43:25.489Z,20.69
2019-03-19T09:47:33.204Z,21.08
2019-03-19T09:51:40.988Z,22.11
2019-03-19T09:55:48.683Z,22.08
2019-03-19T09:59:57.029Z,21.94
2019-03-19T10:04:04.733Z,21.32
2019-03-19T10:08:12.552Z,21.61
2019-03-19T10:12:20.399Z,21.16
2019-03-19T10:16:28.014Z,21.19
2019-03-19T10:20:36.095Z,21.22
2019-03-19T10:24:43.790Z,21.10
2019-03-19T10:28:51.497Z,20.50
2019-03-19T10:32:59.313Z,19.20
2019-03-19T10:37:07.020Z,19.04
2019-03-19T10:41:16.070Z,19.23
2019-03-19T10:45:23.872Z,19.47
2019-03-19T10:49:32.685Z,18.91
2019-03-19T10:53:40.499Z,19.07
2019-03-19T10:57:48.821Z,19.17
2019-03-19T11:01:56.530Z,18.96
2019-03-19T11:06:04.559Z,18.51
2019-03-19T11:10:12.696Z,20.01
2019-03-19T11:14:20.483Z,18.82
2019-03-19T11:18:28.691Z,18.44
2019-03-19T11:22:36.310Z,19.22
2019-03-19T11:26:44.292Z,18.14
2019-03-19T11:30:52.731Z,19.00
2019-03-19T11:35:00.486Z,19.28
2019-03-19T11:39:10.375Z,19.70
2019-03-19T11:43:18.118Z,20.36
2019-03-19T11:47:25.829Z,19.62
2019-03-19T11:51:35.868Z,19.86
2019-03-19T11:55:43.589Z,18.95
2019-03-19T11:59:51.406Z,18.90
2019-03-19T12:03:59.220Z,18.97
2019-03-19T12:08:07.226Z,18.13
2019-03-19T12:12:14.782Z,18.29
2019-03-19T12:16:23.050Z,18.02
2019-03-19T12:20:31.012Z,19.14
2019-03-19T12:24:38.686Z,19.19
2019-03-19T12:28:46.409Z,19.35
2019-03-19T12:32:54.599Z,19.23
2019-03-19T12:37:02.354Z,18.93
2019-03-19T12:41:10.319Z,19.41
2019-03-19T12:45:18.065Z,19.03
2019-03-19T12:49:26.766Z,18.99
2019-03-19T12:53:34.821Z,19.07
2019-03-19T12:57:42.997Z,19.49
2019-03-19T13:01:51.220Z,19.15
2019-03-19T13:05:59.137Z,19.04
2019-03-19T13:10:08.493Z,19.14
2019-03-19T13:14:16.186Z,18.62
2019-03-19T13:18:24.388Z,18.21
2019-03-19T13:22:32.314Z,18.34
2019-03-19T13:26:40.323Z,17.63
2019-03-19T13:30:48.155Z,17.47
2019-03-19T13:34:55.758Z,17.62
2019-03-19T13:39:04.360Z,17.20
2019-03-19T13:43:12.092Z,16.94
2019-03-19T13:47:19.800Z,16.79
2019-03-19T13:51:28.105Z,16.79
2019-03-19T13:55:35.561Z,16.76
2019-03-19T13:59:43.328Z,15.34
2019-03-19T14:03:51.440Z,15.87
2019-03-19T14:07:59.255Z,15.86
2019-03-19T14:12:07.165Z,15.58
2019-03-19T14:16:15.480Z,15.00
2019-03-19T14:20:23.389Z,15.11
2019-03-19T14:24:31.290Z,15.33
2019-03-19T14:28:39.213Z,15.54
2019-03-19T14:32:46.920Z,15.06
2019-03-19T14:36:55.049Z,14.97
2019-03-19T14:41:03.478Z,15.07
2019-03-19T14:45:11.763Z,14.67
2019-03-19T14:49:19.599Z,14.57
2019-03-19T14:53:27.318Z,14.37
2019-03-19T14:57:35.021Z,14.37
2019-03-19T15:01:43.146Z,14.53
2019-03-19T15:05:50.736Z,14.16
2019-03-19T15:09:58.459Z,14.39
2019-03-19T15:14:07.308Z,14.61
2019-03-19T15:18:14.985Z,14.72
2019-03-19T15:22:32.193Z,14.68
2019-03-19T15:26:33.161Z,14.00
2019-03-19T15:30:41.077Z,14.33
2019-03-19T15:34:51.060Z,14.33
2019-03-19T15:38:58.957Z,14.24
2019-03-19T15:43:06.861Z,14.06
2019-03-19T15:47:15.250Z,13.80
2019-03-19T15:51:23.099Z,13.73
2019-03-19T15:55:30.802Z,13.51
2019-03-19T15:59:38.605Z,13.64
2019-03-19T16:03:46.432Z,13.54
2019-03-19T16:07:54.169Z,13.56
2019-03-19T16:12:02.440Z,13.25
2019-03-19T16:16:10.155Z,13.22
2019-03-19T16:20:18.176Z,13.00
2019-03-19T16:24:26.400Z,12.88
2019-03-19T16:28:34.020Z,12.50
2019-03-19T16:32:41.930Z,12.41
2019-03-19T16:36:50.050Z,12.40
2019-03-19T16:40:57.658Z,12.23
2019-03-19T16:45:06.476Z,12.00
2019-03-19T16:49:14.190Z,11.87
2019-03-19T16:53:22.085Z,11.50
2019-03-19T16:57:29.795Z,11.19
2019-03-19T17:01:37.621Z,10.78
2019-03-19T17:05:45.524Z,11.10
2019-03-19T17:09:53.235Z,11.14
2019-03-19T17:14:01.042Z,10.76
2019-03-19T17:18:09.885Z,10.66
2019-03-19T17:22:17.802Z,10.88
2019-03-19T17:26:25.607Z,10.88
2019-03-19T17:30:33.408Z,10.68
2019-03-19T17:34:41.116Z,10.45
2019-03-19T17:38:48.821Z,10.47
2019-03-19T17:42:56.555Z,10.60
2019-03-19T17:47:04.563Z,10.73
2019-03-19T17:51:12.453Z,10.88
2019-03-19T17:55:20.587Z,10.61
2019-03-19T17:59:28.298Z,10.53
2019-03-19T18:03:36.091Z,10.83
2019-03-19T18:07:44.064Z,10.80
2019-03-19T18:11:54.182Z,9.92
2019-03-19T18:16:01.972Z,9.94
2019-03-19T18:20:10.215Z,10.01
2019-03-19T18:24:18.128Z,10.28
2019-03-19T18:28:25.831Z,10.02
2019-03-19T18:32:35.397Z,9.44
2019-03-19T18:36:43.491Z,9.14
2019-03-19T18:40:51.433Z,9.02
2019-03-19T18:44:59.224Z,9.50
2019-03-19T18:49:06.938Z,9.67
2019-03-19T18:53:15.551Z,9.69
2019-03-19T18:57:23.332Z,9.95
2019-03-19T19:01:31.164Z,9.69
2019-03-19T19:05:38.938Z,9.50
2019-03-19T19:09:47.206Z,9.23
2019-03-19T19:13:55.110Z,9.35
2019-03-19T19:18:03.009Z,9.79
2019-03-19T19:22:10.915Z,10.02
2019-03-19T19:26:18.537Z,9.93
2019-03-19T19:30:27.272Z,9.73
2019-03-19T19:34:35.041Z,9.35
2019-03-19T19:38:43.253Z,9.81
2019-03-19T19:42:50.956Z,10.09
2019-03-19T19:46:58.624Z,10.08
2019-03-19T19:51:06.648Z,9.90
2019-03-19T19:55:14.645Z,9.77
2019-03-19T19:59:23.272Z,9.52
2019-03-19T20:03:31.285Z,9.63
2019-03-19T20:07:39.710Z,9.78
2019-03-19T20:11:47.713Z,9.75
2019-03-19T20:15:55.361Z,9.63
2019-03-19T20:20:03.071Z,9.29
2019-03-19T20:24:11.148Z,9.05
2019-03-19T20:28:18.898Z,9.14
2019-03-19T20:32:26.675Z,9.45
2019-03-19T20:36:34.587Z,9.15
2019-03-19T20:40:42.121Z,9.19
2019-03-19T20:44:51.734Z,9.07
2019-03-19T20:48:59.800Z,9.41
2019-03-19T20:53:07.890Z,9.22
2019-03-19T20:57:15.483Z,9.50
2019-03-19T21:01:23.298Z,9.17
2019-03-19T21:05:31.002Z,9.31
2019-03-19T21:09:39.345Z,8.95
2019-03-19T21:13:47.342Z,8.95
2019-03-19T21:17:55.092Z,9.25
2019-03-19T21:22:03.070Z,9.42
2019-03-19T21:26:10.773Z,9.11
2019-03-19T21:30:18.564Z,8.81
2019-03-19T21:34:26.287Z,8.81
2019-03-19T21:38:34.090Z,9.28
2019-03-19T21:42:41.706Z,9.39
2019-03-19T21:46:49.411Z,9.57
2019-03-19T21:50:57.211Z,9.57
2019-03-19T21:55:06.567Z,9.85
2019-03-19T21:59:14.812Z,9.83
2019-03-19T22:03:23.426Z,9.79
2019-03-19T22:07:31.114Z,9.58
2019-03-19T22:11:38.926Z,9.81
2019-03-19T22:15:46.590Z,9.55
2019-03-19T22:19:54.759Z,9.26
2019-03-19T22:24:02.878Z,9.62
2019-03-19T22:28:10.475Z,9.79
2019-03-19T22:32:18.270Z,9.84
2019-03-19T22:36:26.078Z,9.77
2019-03-19T22:40:33.784Z,9.60
2019-03-19T22:44:41.696Z,9.60
2019-03-19T22:48:49.712Z,9.11
2019-03-19T22:52:57.512Z,9.21
2019-03-19T22:57:05.752Z,9.52
2019-03-19T23:01:14.769Z,9.53
2019-03-19T23:05:22.505Z,9.56
2019-03-19T23:09:30.737Z,9.61
2019-03-19T23:13:38.633Z,9.40
2019-03-19T23:17:46.440Z,9.44
2019-03-19T23:21:54.240Z,9.11
2019-03-19T23:26:02.055Z,9.05
2019-03-19T23:30:10.224Z,8.98
2019-03-19T23:34:18.903Z,8.67
2019-03-19T23:38:26.705Z,8.75
2019-03-19T23:42:35.015Z,8.87
2019-03-19T23:46:43.319Z,8.74
2019-03-19T23:50:51.220Z,8.65
2019-03-19T23:54:59.485Z,8.47
2019-03-19T23:59:07.290Z,8.48
